Laurel, New York
Current Conditions -  °F | °C
As of 12:53 PM on Thursday 23 Oct 2014 (Local Time) from KFOK Reporting Station
Overcast Overcast  
Wind Chill: 55°   Ceiling: 2100
Heat Index: 55°   Visibility: 10mi
Dew Point: 50°   Wind: 14mph
Humidity: 83%   Direction: 350°N
Pressure: 29.62"   Gusts: NA
Location:  40.98°N, 72.55°W
Report Text: KFOK 231653Z 35012KT 10SM OVC021 13/10 A2962 RMK AO2 RAE35 SLP029 P0002 T01280100
Loading
Personal Weather Stations






























Interactive Weather Map
Tropical Storm Tracking
New forecast layout! Learn more

10-Day Weather Forecast

Advertisements
Track Severe Weather on mobile